Capron, Illinois
Current Conditions -  °F | °C
As of 12:35 AM on Friday 31 Oct 2014 (Local Time) from KJVL Reporting Station
Overcast Overcast  
Wind Chill: 40°   Ceiling: 2900
Heat Index: 46°   Visibility: 10mi
Dew Point: 36°   Wind: 14mph
Humidity: 66%   Direction: 310°NW
Pressure: 30.04"   Gusts: 18mph
Location:  42.4°N, 88.74°W
Report Text: KJVL 310535Z AUTO 31012G16KT 10SM BKN029 OVC037 08/02 A3004 RMK AO2
Loading
Personal Weather Stations






























Interactive Weather Map
Tropical Storm Tracking
New forecast layout! Learn more

10-Day Weather Forecast

Advertisements
Track Severe Weather on mobile